createdAt,value
2023-06-19T00:01:33.191Z,9.90
2023-06-19T00:04:21.737Z,9.20
2023-06-19T00:07:11.645Z,10.10
2023-06-19T00:10:00.251Z,9.70
2023-06-19T00:12:49.006Z,9.30
2023-06-19T00:15:37.497Z,9.80
2023-06-19T00:18:25.931Z,10.30
2023-06-19T00:21:14.538Z,10.83
2023-06-19T00:24:04.441Z,10.40
2023-06-19T00:26:52.924Z,9.90
2023-06-19T00:29:41.465Z,10.30
2023-06-19T00:32:30.281Z,11.07
2023-06-19T00:35:20.205Z,10.43
2023-06-19T00:38:10.187Z,11.37
2023-06-19T00:41:00.151Z,10.50
2023-06-19T00:43:48.654Z,9.20
2023-06-19T00:46:39.986Z,10.50
2023-06-19T00:49:29.294Z,8.73
2023-06-19T00:52:18.711Z,8.93
2023-06-19T00:55:10.280Z,9.30
2023-06-19T00:58:01.516Z,9.10
2023-06-19T01:01:03.834Z,8.90
2023-06-19T01:03:56.781Z,8.90
2023-06-19T01:06:59.090Z,8.90
2023-06-19T01:09:55.617Z,9.10
2023-06-19T01:12:52.010Z,9.23
2023-06-19T01:15:43.656Z,8.83
2023-06-19T01:18:32.909Z,8.60
2023-06-19T01:21:21.840Z,9.00
2023-06-19T01:24:11.841Z,9.97
2023-06-19T01:27:00.481Z,8.60
2023-06-19T01:29:49.196Z,8.47
2023-06-19T01:32:45.990Z,8.70
2023-06-19T01:35:37.162Z,9.30
2023-06-19T01:38:27.525Z,9.30
2023-06-19T01:41:19.247Z,8.73
2023-06-19T01:44:08.083Z,9.13
2023-06-19T01:46:56.564Z,8.97
2023-06-19T01:49:45.249Z,9.50
2023-06-19T01:52:33.939Z,9.80
2023-06-19T01:55:22.817Z,9.13
2023-06-19T01:58:12.970Z,8.73
2023-06-19T02:01:01.441Z,9.20
2023-06-19T02:03:50.068Z,9.40
2023-06-19T02:06:38.631Z,9.33
2023-06-19T02:09:27.329Z,9.20
2023-06-19T02:12:15.792Z,8.93
2023-06-19T02:15:06.421Z,8.83
2023-06-19T02:17:57.533Z,8.90
2023-06-19T02:20:46.045Z,8.73
2023-06-19T02:23:34.594Z,9.20
2023-06-19T02:26:23.408Z,8.50
2023-06-19T02:29:11.929Z,10.00
2023-06-19T02:32:01.784Z,8.83
2023-06-19T02:34:50.238Z,10.00
2023-06-19T02:37:38.740Z,9.57
2023-06-19T02:40:27.523Z,9.50
2023-06-19T02:43:16.790Z,9.63
2023-06-19T02:46:05.293Z,9.03
2023-06-19T02:48:55.223Z,9.63
2023-06-19T02:51:43.708Z,9.93
2023-06-19T02:54:32.216Z,9.47
2023-06-19T02:57:20.649Z,10.00
2023-06-19T03:00:11.400Z,9.50
2023-06-19T03:03:00.536Z,9.47
2023-06-19T03:05:50.468Z,9.43
2023-06-19T03:08:39.786Z,9.60
2023-06-19T03:11:28.232Z,9.93
2023-06-19T03:14:16.928Z,10.27
2023-06-19T03:17:05.972Z,9.87
2023-06-19T03:19:54.557Z,9.20
2023-06-19T03:22:44.757Z,9.97
2023-06-19T03:25:36.290Z,9.90
2023-06-19T03:28:24.942Z,9.93
2023-06-19T03:31:13.337Z,9.93
2023-06-19T03:34:01.843Z,9.63
2023-06-19T03:36:50.365Z,9.67
2023-06-19T03:39:40.266Z,9.77
2023-06-19T03:42:28.639Z,9.97
2023-06-19T03:45:17.382Z,10.00
2023-06-19T03:48:07.174Z,9.60
2023-06-19T03:50:56.525Z,10.20
2023-06-19T03:53:45.046Z,9.67
2023-06-19T03:56:35.007Z,10.07
2023-06-19T03:59:23.549Z,9.93
2023-06-19T04:02:12.280Z,9.73
2023-06-19T04:05:00.861Z,9.77
2023-06-19T04:07:49.568Z,10.67
2023-06-19T04:10:38.053Z,10.57
2023-06-19T04:13:28.237Z,9.83
2023-06-19T04:16:17.204Z,10.70
2023-06-19T04:19:05.741Z,10.20
2023-06-19T04:21:55.813Z,10.63
2023-06-19T04:24:44.420Z,10.00
2023-06-19T04:27:32.986Z,9.30
2023-06-19T04:30:23.235Z,11.63
2023-06-19T04:33:12.142Z,10.93
2023-06-19T04:36:01.669Z,11.40
2023-06-19T04:38:53.478Z,12.30
2023-06-19T04:41:42.297Z,12.20
2023-06-19T04:44:31.270Z,13.43
2023-06-19T04:47:26.768Z,13.87
2023-06-19T04:50:19.859Z,13.23
2023-06-19T04:53:08.298Z,13.30
2023-06-19T04:55:57.143Z,13.77
2023-06-19T04:58:48.592Z,12.90
2023-06-19T05:01:37.506Z,13.60
2023-06-19T05:04:27.851Z,14.40
2023-06-19T05:07:19.168Z,13.70
2023-06-19T05:10:08.506Z,14.30
2023-06-19T05:12:56.976Z,14.40
2023-06-19T05:15:45.560Z,13.77
2023-06-19T05:18:34.084Z,14.57
2023-06-19T05:21:24.087Z,13.97
2023-06-19T05:24:12.606Z,14.27
2023-06-19T05:27:01.190Z,13.70
2023-06-19T05:29:49.705Z,14.23
2023-06-19T05:32:38.202Z,12.90
2023-06-19T05:35:27.563Z,14.30
2023-06-19T05:38:17.394Z,14.80
2023-06-19T05:41:05.952Z,14.10
2023-06-19T05:43:54.409Z,13.70
2023-06-19T05:46:42.859Z,15.00
2023-06-19T05:49:31.746Z,14.87
2023-06-19T05:52:20.310Z,13.53
2023-06-19T05:55:11.039Z,13.00
2023-06-19T05:57:59.638Z,14.43
2023-06-19T06:00:48.517Z,13.43
2023-06-19T06:03:37.297Z,14.13
2023-06-19T06:06:27.023Z,13.90
2023-06-19T06:09:17.325Z,13.50
2023-06-19T06:12:09.092Z,13.37
2023-06-19T06:14:57.512Z,14.00
2023-06-19T06:17:46.119Z,13.80
2023-06-19T06:20:34.729Z,13.87
2023-06-19T06:23:23.371Z,13.03
2023-06-19T06:26:11.900Z,14.00
2023-06-19T06:29:01.760Z,13.60
2023-06-19T06:31:53.668Z,13.97
2023-06-19T06:34:42.200Z,13.33
2023-06-19T06:37:30.667Z,15.47
2023-06-19T06:40:19.278Z,14.20
2023-06-19T06:43:07.715Z,13.90
2023-06-19T06:45:57.639Z,13.47
2023-06-19T06:48:46.058Z,12.90
2023-06-19T06:51:34.570Z,14.30
2023-06-19T06:54:23.218Z,13.50
2023-06-19T06:57:11.701Z,14.33
2023-06-19T07:00:00.177Z,12.93
2023-06-19T07:02:51.791Z,12.63
2023-06-19T07:05:40.399Z,13.07
2023-06-19T07:08:28.927Z,12.47
2023-06-19T07:11:17.379Z,14.40
2023-06-19T07:14:05.821Z,14.27
2023-06-19T07:16:54.278Z,15.60
2023-06-19T07:19:44.222Z,15.43
2023-06-19T07:22:32.904Z,16.03
2023-06-19T07:25:21.443Z,15.93
2023-06-19T07:28:09.992Z,14.27
2023-06-19T07:30:58.439Z,14.37
2023-06-19T07:33:46.852Z,14.03
2023-06-19T07:36:36.780Z,15.47
2023-06-19T07:39:25.336Z,14.60
2023-06-19T07:42:15.174Z,14.47
2023-06-19T07:45:03.687Z,13.83
2023-06-19T07:47:57.227Z,14.57
2023-06-19T07:50:45.778Z,14.20
2023-06-19T07:53:35.614Z,13.10
2023-06-19T07:56:24.155Z,13.87
2023-06-19T07:59:12.679Z,13.40
2023-06-19T08:02:01.294Z,13.37
2023-06-19T08:04:50.159Z,13.90
2023-06-19T08:07:39.501Z,12.67
2023-06-19T08:10:29.798Z,14.23
2023-06-19T08:13:18.546Z,12.70
2023-06-19T08:16:07.494Z,12.03
2023-06-19T08:18:55.985Z,12.40
2023-06-19T08:21:44.417Z,12.50
2023-06-19T08:24:33.053Z,13.93
2023-06-19T08:27:22.963Z,13.27
2023-06-19T08:30:12.061Z,11.30
2023-06-19T08:33:00.639Z,11.80
2023-06-19T08:35:49.514Z,13.60
2023-06-19T08:38:38.029Z,11.83
2023-06-19T08:41:26.614Z,12.30
2023-06-19T08:44:16.805Z,12.33
2023-06-19T08:47:06.024Z,11.90
2023-06-19T08:49:54.488Z,11.30
2023-06-19T08:52:43.003Z,12.23
2023-06-19T08:55:31.597Z,12.00
2023-06-19T08:58:24.609Z,11.37
2023-06-19T09:01:19.302Z,12.03
2023-06-19T09:04:12.453Z,11.87
2023-06-19T09:07:04.001Z,12.00
2023-06-19T09:09:53.021Z,12.87
2023-06-19T09:12:41.492Z,11.77
2023-06-19T09:15:31.878Z,12.17
2023-06-19T09:18:21.811Z,11.93
2023-06-19T09:21:17.536Z,11.93
2023-06-19T09:24:07.509Z,11.90
2023-06-19T09:27:07.274Z,11.90
2023-06-19T09:29:55.791Z,12.17
2023-06-19T09:32:44.363Z,11.40
2023-06-19T09:35:34.268Z,11.60
2023-06-19T09:38:27.126Z,11.60
2023-06-19T09:41:17.212Z,12.30
2023-06-19T09:44:13.603Z,11.80
2023-06-19T09:47:06.189Z,12.40
2023-06-19T09:49:57.766Z,12.30
2023-06-19T09:52:47.593Z,12.30
2023-06-19T09:55:38.629Z,11.80
2023-06-19T09:58:27.970Z,11.50
2023-06-19T10:01:19.626Z,10.97
2023-06-19T10:04:09.749Z,11.20
2023-06-19T10:06:58.707Z,12.70
2023-06-19T10:10:03.297Z,11.73
2023-06-19T10:12:52.216Z,13.00
2023-06-19T10:15:43.959Z,12.50
2023-06-19T10:18:34.581Z,13.17
2023-06-19T10:21:24.052Z,12.70
2023-06-19T10:24:16.914Z,12.00
2023-06-19T10:27:07.425Z,12.03
2023-06-19T10:30:12.805Z,12.10
2023-06-19T10:33:05.459Z,11.80
2023-06-19T10:35:54.898Z,12.60
2023-06-19T10:38:48.236Z,12.13
2023-06-19T10:41:37.064Z,11.77
2023-06-19T10:44:27.836Z,11.70
2023-06-19T10:47:17.519Z,12.30
2023-06-19T10:50:06.762Z,12.23
2023-06-19T10:52:57.030Z,11.70
2023-06-19T10:55:45.511Z,12.10
2023-06-19T10:58:33.912Z,12.53
2023-06-19T11:01:24.635Z,12.00
2023-06-19T11:04:14.597Z,11.30
2023-06-19T11:07:07.648Z,11.93
2023-06-19T11:09:56.045Z,12.00
2023-06-19T11:12:45.982Z,11.37
2023-06-19T11:15:35.867Z,11.10
2023-06-19T11:18:25.887Z,11.40
2023-06-19T11:21:14.390Z,11.30
2023-06-19T11:24:02.968Z,10.90
2023-06-19T11:26:53.293Z,10.27
2023-06-19T11:29:43.391Z,10.40
2023-06-19T11:32:37.138Z,10.30
2023-06-19T11:35:33.118Z,11.13
2023-06-19T11:38:22.723Z,10.73
2023-06-19T11:41:11.468Z,10.53
2023-06-19T11:44:03.240Z,11.00
2023-06-19T11:46:51.636Z,9.90
2023-06-19T11:49:40.252Z,10.87
2023-06-19T11:52:30.271Z,9.77
2023-06-19T11:55:18.860Z,10.33
2023-06-19T11:58:08.836Z,10.20
2023-06-19T12:00:57.633Z,9.80
2023-06-19T12:03:46.341Z,10.17
2023-06-19T12:06:36.639Z,9.70
2023-06-19T12:09:26.545Z,9.67
2023-06-19T12:12:14.975Z,9.13
2023-06-19T12:15:03.557Z,8.70
2023-06-19T12:17:53.336Z,8.90
2023-06-19T12:20:41.879Z,9.37
2023-06-19T12:23:30.369Z,9.00
2023-06-19T12:26:20.212Z,9.37
2023-06-19T12:29:09.505Z,9.10
2023-06-19T12:32:02.857Z,8.50
2023-06-19T12:34:55.329Z,8.70
2023-06-19T12:37:43.935Z,9.23
2023-06-19T12:40:32.375Z,8.90
2023-06-19T12:43:22.298Z,8.40
2023-06-19T12:46:10.833Z,8.40
2023-06-19T12:48:59.312Z,9.00
2023-06-19T12:51:50.264Z,8.50
2023-06-19T12:54:38.709Z,8.47
2023-06-19T12:57:27.145Z,8.10
2023-06-19T13:00:17.637Z,8.70
2023-06-19T13:03:06.223Z,8.17
2023-06-19T13:05:54.913Z,8.70
2023-06-19T13:08:44.001Z,8.30
2023-06-19T13:11:32.484Z,9.20
2023-06-19T13:14:21.027Z,8.50
2023-06-19T13:17:11.292Z,9.63
2023-06-19T13:20:00.407Z,9.80
2023-06-19T13:22:48.807Z,8.63
2023-06-19T13:25:37.344Z,8.57
2023-06-19T13:28:25.829Z,8.90
2023-06-19T13:31:14.324Z,9.10
2023-06-19T13:34:04.107Z,9.30
2023-06-19T13:36:52.630Z,9.03
2023-06-19T13:39:41.840Z,9.23
2023-06-19T13:42:31.582Z,9.97
2023-06-19T13:45:20.275Z,9.90
2023-06-19T13:48:09.203Z,10.07
2023-06-19T13:51:00.676Z,9.40
2023-06-19T13:53:49.242Z,10.40
2023-06-19T13:56:38.389Z,9.40
2023-06-19T13:59:26.879Z,10.13
2023-06-19T14:02:15.670Z,10.03
2023-06-19T14:05:04.177Z,9.30
2023-06-19T14:07:54.026Z,9.50
2023-06-19T14:10:42.515Z,10.17
2023-06-19T14:13:30.973Z,10.07
2023-06-19T14:16:19.478Z,10.07
2023-06-19T14:19:07.910Z,10.93
2023-06-19T14:21:56.422Z,10.53
2023-06-19T14:24:46.545Z,9.93
2023-06-19T14:27:35.106Z,10.50
2023-06-19T14:30:23.803Z,10.23
2023-06-19T14:33:16.453Z,10.13
2023-06-19T14:36:08.448Z,10.10
2023-06-19T14:38:56.882Z,10.33
2023-06-19T14:41:46.832Z,9.97
2023-06-19T14:44:35.217Z,9.87
2023-06-19T14:47:26.428Z,9.30
2023-06-19T14:50:15.054Z,9.93
2023-06-19T14:53:03.638Z,9.50
2023-06-19T14:55:52.318Z,9.80
2023-06-19T14:58:42.232Z,9.40
2023-06-19T15:01:30.701Z,9.00
2023-06-19T15:04:19.739Z,9.60
2023-06-19T15:07:08.930Z,9.30
2023-06-19T15:09:57.383Z,9.90
2023-06-19T15:12:45.828Z,9.23
2023-06-19T15:15:35.848Z,9.70
2023-06-19T15:18:24.359Z,8.67
2023-06-19T15:21:12.902Z,9.60
2023-06-19T15:24:01.444Z,9.17
2023-06-19T15:26:50.073Z,9.23
2023-06-19T15:29:39.908Z,9.97
2023-06-19T15:32:29.857Z,9.00
2023-06-19T15:35:18.360Z,9.00
2023-06-19T15:38:06.817Z,10.30
2023-06-19T15:40:55.484Z,9.20
2023-06-19T15:43:44.302Z,9.40
2023-06-19T15:46:32.915Z,10.07
2023-06-19T15:49:22.781Z,9.77
2023-06-19T15:52:11.466Z,9.60
2023-06-19T15:54:59.965Z,10.47
2023-06-19T15:57:48.560Z,10.40
2023-06-19T16:00:37.012Z,10.47
2023-06-19T16:03:25.910Z,10.37
2023-06-19T16:06:15.992Z,10.57
2023-06-19T16:09:04.574Z,10.37
2023-06-19T16:11:53.025Z,10.40
2023-06-19T16:14:41.527Z,10.57
2023-06-19T16:17:30.035Z,10.23
2023-06-19T16:20:18.514Z,9.87
2023-06-19T16:23:08.412Z,9.70
2023-06-19T16:25:56.824Z,10.00
2023-06-19T16:28:45.395Z,10.50
2023-06-19T16:31:33.976Z,10.30
2023-06-19T16:34:22.718Z,9.77
2023-06-19T16:37:11.387Z,9.50
2023-06-19T16:40:01.246Z,9.27
2023-06-19T16:42:50.193Z,9.03
2023-06-19T16:45:38.634Z,8.57
2023-06-19T16:48:27.058Z,9.07
2023-06-19T16:51:15.472Z,8.30
2023-06-19T16:54:03.959Z,8.53
2023-06-19T16:56:53.776Z,8.53
2023-06-19T16:59:42.225Z,9.17
2023-06-19T17:02:30.766Z,9.40
2023-06-19T17:05:22.332Z,8.50
2023-06-19T17:08:10.824Z,8.37
2023-06-19T17:10:59.321Z,8.77
2023-06-19T17:13:49.309Z,8.70
2023-06-19T17:16:37.915Z,9.20
2023-06-19T17:19:28.372Z,9.13
2023-06-19T17:22:16.782Z,9.30
2023-06-19T17:25:05.652Z,10.53
2023-06-19T17:27:54.683Z,10.70
2023-06-19T17:30:44.563Z,11.20
2023-06-19T17:33:33.002Z,10.03
2023-06-19T17:36:21.772Z,11.27
2023-06-19T17:39:10.762Z,11.10
2023-06-19T17:41:59.297Z,11.03
2023-06-19T17:44:47.795Z,10.53
2023-06-19T17:47:37.846Z,11.33
2023-06-19T17:50:26.685Z,11.77
2023-06-19T17:53:15.265Z,11.60
2023-06-19T17:56:05.966Z,11.27
2023-06-19T17:58:54.792Z,11.27
2023-06-19T18:01:43.381Z,11.27
2023-06-19T18:04:33.390Z,11.50
2023-06-19T18:07:21.859Z,12.43
2023-06-19T18:10:13.084Z,11.93
2023-06-19T18:13:04.006Z,11.50
2023-06-19T18:16:06.807Z,11.80
2023-06-19T18:18:59.476Z,11.30
2023-06-19T18:21:49.426Z,11.73
2023-06-19T18:24:37.894Z,13.03
2023-06-19T18:27:27.547Z,12.83
2023-06-19T18:30:16.017Z,13.23
2023-06-19T18:33:05.295Z,12.73
2023-06-19T18:35:54.007Z,12.70
2023-06-19T18:38:44.133Z,12.00
2023-06-19T18:41:33.599Z,12.53
2023-06-19T18:44:22.324Z,11.20
2023-06-19T18:47:10.961Z,11.83
2023-06-19T18:50:00.038Z,11.60
2023-06-19T18:52:48.838Z,12.00
2023-06-19T18:55:41.230Z,11.90
2023-06-19T18:58:31.654Z,12.27
2023-06-19T19:01:20.586Z,12.07
2023-06-19T19:04:09.459Z,11.97
2023-06-19T19:06:58.130Z,11.63
2023-06-19T19:09:47.065Z,13.67
2023-06-19T19:12:37.590Z,12.00
2023-06-19T19:15:27.761Z,11.70
2023-06-19T19:18:16.362Z,13.07
2023-06-19T19:21:05.190Z,13.93
2023-06-19T19:23:55.323Z,12.20
2023-06-19T19:26:45.205Z,13.03
2023-06-19T19:29:37.048Z,13.50
2023-06-19T19:32:26.045Z,13.33
2023-06-19T19:35:14.783Z,14.07
2023-06-19T19:38:03.993Z,14.73
2023-06-19T19:40:52.733Z,13.77
2023-06-19T19:43:41.480Z,13.27
2023-06-19T19:46:31.526Z,13.63
2023-06-19T19:49:20.420Z,12.03
2023-06-19T19:52:10.633Z,12.13
2023-06-19T19:55:01.011Z,12.73
2023-06-19T19:57:51.543Z,13.87
2023-06-19T20:00:45.697Z,13.47
2023-06-19T20:03:40.511Z,14.23
2023-06-19T20:06:33.709Z,12.70
2023-06-19T20:09:22.914Z,13.77
2023-06-19T20:12:21.585Z,13.30
2023-06-19T20:15:12.433Z,13.13
2023-06-19T20:18:01.547Z,13.97
2023-06-19T20:20:52.407Z,13.30
2023-06-19T20:23:41.018Z,13.50
2023-06-19T20:26:30.833Z,14.50
2023-06-19T20:29:20.475Z,15.20
2023-06-19T20:32:09.707Z,14.00
2023-06-19T20:34:58.176Z,13.90
2023-06-19T20:37:48.195Z,14.60
2023-06-19T20:40:36.637Z,13.47
2023-06-19T20:43:25.790Z,13.40
2023-06-19T20:46:14.344Z,13.90
2023-06-19T20:49:02.801Z,14.13
2023-06-19T20:51:51.665Z,14.03
2023-06-19T20:54:41.834Z,14.60
2023-06-19T20:57:30.330Z,14.57
2023-06-19T21:00:20.539Z,13.83
2023-06-19T21:03:11.757Z,12.87
2023-06-19T21:06:00.978Z,14.30
2023-06-19T21:08:50.201Z,14.00
2023-06-19T21:11:41.591Z,14.80
2023-06-19T21:14:30.187Z,15.93
2023-06-19T21:17:18.690Z,15.43
2023-06-19T21:20:10.527Z,15.10
2023-06-19T21:22:59.633Z,15.70
2023-06-19T21:25:48.068Z,15.83
2023-06-19T21:28:37.884Z,14.93
2023-06-19T21:31:26.293Z,15.80
2023-06-19T21:34:14.784Z,15.10
2023-06-19T21:37:03.320Z,15.30
2023-06-19T21:39:51.893Z,15.17
2023-06-19T21:42:40.358Z,15.73
2023-06-19T21:45:30.278Z,15.20
2023-06-19T21:48:18.715Z,14.93
2023-06-19T21:51:07.214Z,15.57
2023-06-19T21:53:55.805Z,15.10
2023-06-19T21:56:44.299Z,15.57
2023-06-19T21:59:33.041Z,15.77
2023-06-19T22:02:23.358Z,17.33
2023-06-19T22:05:12.031Z,15.70
2023-06-19T22:08:00.477Z,15.90
2023-06-19T22:10:49.078Z,18.47
2023-06-19T22:13:37.520Z,17.90
2023-06-19T22:16:26.081Z,17.57
2023-06-19T22:19:16.003Z,17.40
2023-06-19T22:22:04.533Z,18.33
2023-06-19T22:24:53.174Z,17.53
2023-06-19T22:27:46.145Z,16.73
2023-06-19T22:30:35.418Z,17.77
2023-06-19T22:33:23.846Z,16.40
2023-06-19T22:36:13.682Z,15.90
2023-06-19T22:39:02.239Z,16.03
2023-06-19T22:41:50.982Z,17.03
2023-06-19T22:44:39.464Z,17.13
2023-06-19T22:47:27.954Z,18.10
2023-06-19T22:50:16.449Z,17.20
2023-06-19T22:53:06.277Z,18.03
2023-06-19T22:55:54.705Z,16.67
2023-06-19T22:58:43.738Z,17.63
2023-06-19T23:01:34.473Z,18.37
2023-06-19T23:04:23.041Z,17.87
2023-06-19T23:07:11.583Z,16.40
2023-06-19T23:10:02.026Z,17.70
2023-06-19T23:12:50.615Z,16.73
2023-06-19T23:15:39.108Z,16.87
2023-06-19T23:18:27.588Z,17.57
2023-06-19T23:21:17.460Z,15.93
2023-06-19T23:24:06.615Z,17.30
2023-06-19T23:26:56.481Z,16.73
2023-06-19T23:29:44.929Z,16.60
2023-06-19T23:32:33.503Z,16.47
2023-06-19T23:35:24.021Z,16.60
2023-06-19T23:38:13.997Z,15.60
2023-06-19T23:41:02.489Z,15.87
2023-06-19T23:43:52.368Z,17.90
2023-06-19T23:46:41.089Z,16.70
2023-06-19T23:49:29.613Z,17.80
2023-06-19T23:52:26.684Z,17.70
2023-06-19T23:55:23.442Z,16.00
2023-06-19T23:58:12.198Z,15.73
